Time;durP1;ratioP1;P1;durP2;ratioP2;P2;SDS_P1;SDS_P2;PMS_P1;PMS_P2;Temp;Humidity;BMP_temperature;BMP_pressure;BME280_temperature;BME280_humidity;BME280_pressure;Samples;Min_cycle;Max_cycle;Signal;HPM_P1;HPM_P2
2023/06/27 00:00:13;;;;;;;9.48;9.18;;;20.20;99.90;;;;;;5060775;28;20325;-81
2023/06/27 00:02:41;;;;;;;9.40;9.10;;;20.10;99.90;;;;;;5060900;28;20237;-80
2023/06/27 00:05:09;;;;;;;9.40;9.10;;;20.20;99.90;;;;;;5060720;28;20241;-81
2023/06/27 00:07:42;;;;;;;9.00;8.80;;;20.20;99.90;;;;;;5061758;28;20215;-80
2023/06/27 00:10:11;;;;;;;9.00;8.80;;;20.10;99.90;;;;;;5061677;28;20265;-79
2023/06/27 00:12:38;;;;;;;9.38;9.07;;;20.10;99.90;;;;;;5062569;28;20230;-79
2023/06/27 00:15:08;;;;;;;9.20;8.90;;;20.10;99.90;;;;;;5061868;28;20281;-79
2023/06/27 00:17:40;;;;;;;9.57;9.27;;;20.10;99.90;;;;;;5061138;28;20238;-80
2023/06/27 00:20:10;;;;;;;9.43;9.13;;;20.10;99.90;;;;;;5061056;28;20226;-81
2023/06/27 00:22:40;;;;;;;9.27;8.98;;;20.10;99.90;;;;;;5060409;28;20229;-80
2023/06/27 00:25:11;;;;;;;9.10;8.80;;;20.10;99.90;;;;;;5059732;28;20810;-81
2023/06/27 00:27:39;;;;;;;9.32;9.02;;;20.20;99.90;;;;;;5060486;28;20219;-80
2023/06/27 00:30:09;;;;;;;9.27;8.98;;;20.20;99.90;;;;;;5059582;28;20325;-78
2023/06/27 00:32:37;;;;;;;8.93;8.73;;;20.10;99.90;;;;;;5059510;28;20257;-80
2023/06/27 00:35:06;;;;;;;8.73;8.52;;;20.10;99.90;;;;;;5059259;28;20226;-79
2023/06/27 00:37:34;;;;;;;9.40;9.10;;;20.10;99.90;;;;;;5059519;28;20233;-78
2023/06/27 00:40:08;;;;;;;9.20;8.90;;;20.10;99.90;;;;;;5062661;28;20258;-78
2023/06/27 00:42:39;;;;;;;9.10;8.80;;;20.10;99.90;;;;;;5064312;28;20231;-79
2023/06/27 00:45:09;;;;;;;9.20;8.90;;;20.00;99.90;;;;;;5062826;28;20273;-78
2023/06/27 00:47:37;;;;;;;9.60;9.30;;;19.80;99.90;;;;;;5063006;28;20305;-78
2023/06/27 00:50:08;;;;;;;9.52;9.23;;;19.70;99.90;;;;;;5062318;28;20239;-77
2023/06/27 00:52:36;;;;;;;8.93;8.73;;;19.60;99.90;;;;;;5060847;28;20310;-79
2023/06/27 00:55:15;;;;;;;9.20;8.90;;;19.60;99.90;;;;;;5060573;28;20241;-78
2023/06/27 00:57:44;;;;;;;9.15;8.88;;;19.60;99.90;;;;;;5062795;28;20250;-79
2023/06/27 01:00:13;;;;;;;9.20;8.90;;;19.50;99.90;;;;;;5062225;28;20258;-80
2023/06/27 01:02:41;;;;;;;9.20;8.90;;;19.40;99.90;;;;;;5061609;28;20239;-78
2023/06/27 01:05:10;;;;;;;9.65;9.35;;;19.40;99.90;;;;;;5061643;28;20227;-80
2023/06/27 01:07:43;;;;;;;9.60;9.30;;;19.40;99.90;;;;;;5061855;28;20251;-80
2023/06/27 01:10:26;;;;;;;9.40;9.10;;;19.30;99.90;;;;;;5062486;28;20239;-79
2023/06/27 01:13:03;;;;;;;9.40;9.10;;;19.30;99.90;;;;;;5064971;28;20231;-78
2023/06/27 01:15:31;;;;;;;9.52;9.23;;;19.20;99.90;;;;;;5067510;28;20214;-77
2023/06/27 01:18:00;;;;;;;9.50;9.20;;;19.00;99.90;;;;;;5065264;28;20325;-79
2023/06/27 01:20:28;;;;;;;9.60;9.30;;;19.00;99.90;;;;;;5063488;28;20253;-79
2023/06/27 01:23:10;;;;;;;9.43;9.13;;;19.00;99.90;;;;;;5061883;28;20295;-79
2023/06/27 01:25:40;;;;;;;9.60;9.30;;;19.00;99.90;;;;;;5061537;28;20246;-79
2023/06/27 01:28:08;;;;;;;9.57;9.27;;;18.90;99.90;;;;;;5061565;28;20229;-80
2023/06/27 01:30:35;;;;;;;9.50;9.20;;;18.90;99.90;;;;;;5062252;28;20241;-79
2023/06/27 01:33:06;;;;;;;9.27;8.98;;;18.80;99.90;;;;;;5061509;28;20714;-79
2023/06/27 01:35:41;;;;;;;9.60;9.30;;;18.80;99.90;;;;;;5069129;28;20226;-80
2023/06/27 01:38:17;;;;;;;9.50;9.20;;;18.80;99.90;;;;;;5069683;28;20226;-79
2023/06/27 01:40:49;;;;;;;9.40;9.10;;;18.80;99.90;;;;;;5065192;28;20301;-79
2023/06/27 01:43:18;;;;;;;9.40;9.10;;;18.80;99.90;;;;;;5061446;28;20242;-79
2023/06/27 01:45:48;;;;;;;9.30;9.00;;;18.80;99.90;;;;;;5061445;28;20230;-78
2023/06/27 01:48:18;;;;;;;9.50;9.20;;;18.70;99.90;;;;;;5061206;28;20326;-79
2023/06/27 01:50:47;;;;;;;9.52;9.23;;;18.70;99.90;;;;;;5060600;28;20356;-79
2023/06/27 01:53:15;;;;;;;9.63;9.32;;;18.70;99.90;;;;;;5061135;28;20227;-79
2023/06/27 01:55:45;;;;;;;9.55;9.25;;;18.60;99.90;;;;;;5060967;28;20230;-79
2023/06/27 01:58:14;;;;;;;9.23;8.93;;;18.50;99.90;;;;;;5061223;28;20227;-79
2023/06/27 02:00:43;;;;;;;9.00;8.80;;;18.50;99.90;;;;;;5061526;28;20269;-79
2023/06/27 02:03:14;;;;;;;9.30;9.00;;;18.50;99.90;;;;;;5060752;28;20234;-79
2023/06/27 02:05:42;;;;;;;9.40;9.10;;;18.40;99.90;;;;;;5063545;28;20226;-79
2023/06/27 02:08:12;;;;;;;9.38;9.07;;;18.40;99.90;;;;;;5065411;28;20305;-79
2023/06/27 02:10:41;;;;;;;9.50;9.20;;;18.40;99.90;;;;;;5062635;28;20325;-80
2023/06/27 02:13:09;;;;;;;9.35;9.05;;;18.40;99.90;;;;;;5061761;28;20241;-80
2023/06/27 02:15:38;;;;;;;9.20;8.90;;;18.40;99.90;;;;;;5062888;28;20223;-79
2023/06/27 02:18:05;;;;;;;9.38;9.07;;;18.30;99.90;;;;;;5061933;28;20270;-80
2023/06/27 02:20:33;;;;;;;9.05;8.82;;;18.30;99.90;;;;;;5063203;28;20234;-80
2023/06/27 02:23:05;;;;;;;8.90;8.70;;;18.30;99.90;;;;;;5062120;28;20265;-79
2023/06/27 02:25:33;;;;;;;9.40;9.10;;;18.40;99.90;;;;;;5064720;28;20215;-81
2023/06/27 02:28:03;;;;;;;9.38;9.07;;;18.40;99.90;;;;;;5061071;28;20286;-78
2023/06/27 02:30:30;;;;;;;9.32;9.02;;;18.40;99.90;;;;;;5060580;28;20265;-79
2023/06/27 02:32:59;;;;;;;9.50;9.20;;;18.30;99.90;;;;;;5061454;28;20318;-79
2023/06/27 02:35:32;;;;;;;9.63;9.32;;;18.30;99.90;;;;;;5061660;28;20322;-78
2023/06/27 02:38:00;;;;;;;9.70;9.40;;;18.30;99.90;;;;;;5065562;28;20255;-78
2023/06/27 02:40:30;;;;;;;9.55;9.25;;;18.20;99.90;;;;;;5064597;28;20231;-79
2023/06/27 02:42:57;;;;;;;9.40;9.10;;;18.10;99.90;;;;;;5065943;28;20230;-79
2023/06/27 02:45:25;;;;;;;9.30;9.00;;;18.00;99.90;;;;;;5064533;28;20237;-78
2023/06/27 02:47:53;;;;;;;9.77;9.48;;;18.00;99.90;;;;;;5064773;28;20223;-78
2023/06/27 02:50:22;;;;;;;10.15;9.85;;;18.00;99.90;;;;;;5064817;28;20334;-79
2023/06/27 02:52:49;;;;;;;9.88;9.57;;;17.90;99.90;;;;;;5064823;28;20251;-78
2023/06/27 02:55:17;;;;;;;9.80;9.50;;;17.90;99.90;;;;;;5064231;28;20230;-78
2023/06/27 02:57:44;;;;;;;9.70;9.40;;;17.80;99.90;;;;;;5064658;28;20211;-78
2023/06/27 03:00:17;;;;;;;10.10;9.80;;;17.80;99.90;;;;;;5064762;28;20227;-77
2023/06/27 03:02:44;;;;;;;9.98;9.68;;;17.80;99.90;;;;;;5068743;28;20279;-78
2023/06/27 03:05:14;;;;;;;10.00;9.70;;;17.80;99.90;;;;;;5068068;28;20231;-79
2023/06/27 03:07:43;;;;;;;10.00;9.70;;;17.80;99.90;;;;;;5063056;28;20222;-79
2023/06/27 03:10:11;;;;;;;9.80;9.50;;;17.80;99.90;;;;;;5060127;28;20243;-79
2023/06/27 03:12:41;;;;;;;9.13;8.88;;;17.80;99.90;;;;;;5058131;28;20286;-79
2023/06/27 03:15:10;;;;;;;9.40;9.10;;;17.70;99.90;;;;;;5059743;28;20256;-79
2023/06/27 03:17:37;;;;;;;9.27;8.98;;;17.60;99.90;;;;;;5059720;28;20223;-78
2023/06/27 03:20:06;;;;;;;10.00;9.70;;;17.50;99.90;;;;;;5059511;28;20227;-79
2023/06/27 03:22:33;;;;;;;9.40;9.10;;;17.50;99.90;;;;;;5058885;28;20245;-79
2023/06/27 03:25:03;;;;;;;9.38;9.07;;;17.40;99.90;;;;;;5058600;28;20329;-79
2023/06/27 03:27:31;;;;;;;9.48;9.18;;;17.40;99.90;;;;;;5059479;28;20227;-78
2023/06/27 03:29:58;;;;;;;9.38;9.07;;;17.40;99.90;;;;;;5059368;28;20238;-79
2023/06/27 03:32:28;;;;;;;9.35;9.05;;;17.30;99.90;;;;;;5059989;28;20226;-77
2023/06/27 03:34:56;;;;;;;9.48;9.18;;;17.30;99.90;;;;;;5060115;28;20341;-79
2023/06/27 03:37:23;;;;;;;9.45;9.15;;;17.30;99.90;;;;;;5059027;28;20326;-78
2023/06/27 03:39:51;;;;;;;9.60;9.30;;;17.30;99.90;;;;;;5059205;28;20234;-79
2023/06/27 03:42:20;;;;;;;9.40;9.10;;;17.30;99.90;;;;;;5058637;28;20250;-78
2023/06/27 03:44:47;;;;;;;9.55;9.25;;;17.20;99.90;;;;;;5058636;28;20273;-78
2023/06/27 03:47:15;;;;;;;9.48;9.18;;;17.30;99.90;;;;;;5058584;28;20227;-79
2023/06/27 03:49:42;;;;;;;9.60;9.30;;;17.30;99.90;;;;;;5058869;28;20309;-79
2023/06/27 03:52:10;;;;;;;9.60;9.30;;;17.20;99.90;;;;;;5059388;28;20237;-79
2023/06/27 03:54:41;;;;;;;9.60;9.30;;;17.20;99.90;;;;;;5072697;22;20238;-83
2023/06/27 03:57:09;;;;;;;9.70;9.40;;;17.00;99.90;;;;;;5069014;28;20249;-85
2023/06/27 03:59:40;;;;;;;9.50;9.20;;;17.00;99.90;;;;;;5068124;28;20243;-85
2023/06/27 04:02:08;;;;;;;9.80;9.50;;;17.00;99.90;;;;;;5068259;28;20239;-86
2023/06/27 04:04:36;;;;;;;9.70;9.40;;;17.00;99.90;;;;;;5072469;28;20741;-85
2023/06/27 04:07:05;;;;;;;9.98;9.68;;;17.10;99.90;;;;;;5068743;28;20238;-85
2023/06/27 04:09:35;;;;;;;10.07;9.77;;;17.00;99.90;;;;;;5076576;28;20227;-86
2023/06/27 04:12:05;;;;;;;9.93;9.63;;;17.00;99.90;;;;;;5068667;28;20237;-85
2023/06/27 04:14:34;;;;;;;10.10;9.80;;;16.90;99.90;;;;;;5064585;28;20245;-85
2023/06/27 04:17:12;;;;;;;9.73;9.43;;;16.90;99.90;;;;;;5066708;28;20229;-84
2023/06/27 04:19:44;;;;;;;9.98;9.68;;;16.90;99.90;;;;;;5066151;28;20280;-85
2023/06/27 04:22:13;;;;;;;10.00;9.70;;;16.90;99.90;;;;;;5067575;28;20266;-85
2023/06/27 04:24:42;;;;;;;9.93;9.63;;;17.00;99.90;;;;;;5066652;28;20242;-85
2023/06/27 04:27:14;;;;;;;10.20;9.90;;;17.00;99.90;;;;;;5067109;28;20230;-85
2023/06/27 04:29:42;;;;;;;10.25;9.95;;;17.10;99.90;;;;;;5072759;28;20223;-85
2023/06/27 04:32:13;;;;;;;9.85;9.55;;;17.10;99.90;;;;;;5067898;28;20227;-85
2023/06/27 04:34:41;;;;;;;10.10;9.80;;;17.20;99.90;;;;;;5066712;28;20231;-85
2023/06/27 04:37:10;;;;;;;9.98;9.68;;;17.20;99.90;;;;;;5066936;28;20211;-85
2023/06/27 04:39:40;;;;;;;9.70;9.40;;;17.20;99.90;;;;;;5067495;28;20227;-85
2023/06/27 04:42:09;;;;;;;9.90;9.60;;;17.30;99.90;;;;;;5068582;28;20231;-86
2023/06/27 04:44:37;;;;;;;9.80;9.50;;;17.30;99.90;;;;;;5069926;28;20223;-86
2023/06/27 04:47:07;;;;;;;9.85;9.55;;;17.30;99.90;;;;;;5071230;28;20241;-85
2023/06/27 04:52:23;;;;;;;9.80;9.50;;;17.30;99.90;;;;;;5075440;28;20214;-87
2023/06/27 04:54:53;;;;;;;9.50;9.20;;;17.20;99.90;;;;;;5081805;28;20238;-86
2023/06/27 04:57:24;;;;;;;9.40;9.10;;;17.20;99.90;;;;;;5081269;28;20223;-85
2023/06/27 04:59:52;;;;;;;9.60;9.30;;;17.30;99.90;;;;;;5070316;28;20226;-85
2023/06/27 05:02:21;;;;;;;9.35;9.05;;;17.30;99.90;;;;;;5068492;28;20242;-85
2023/06/27 05:05:02;;;;;;;10.07;9.77;;;17.20;99.90;;;;;;5066928;28;20250;-85
2023/06/27 05:07:29;;;;;;;9.70;9.40;;;17.20;99.90;;;;;;5069381;28;20224;-84
2023/06/27 05:09:59;;;;;;;9.93;9.63;;;17.20;99.90;;;;;;5079477;28;20231;-85
2023/06/27 05:12:37;;;;;;;9.77;9.48;;;17.20;99.90;;;;;;5076111;28;20227;-85
2023/06/27 05:15:08;;;;;;;9.63;9.32;;;17.30;99.90;;;;;;5068631;28;20742;-85
2023/06/27 05:17:36;;;;;;;9.90;9.60;;;17.30;99.90;;;;;;5067621;28;20238;-86
2023/06/27 05:22:54;;;;;;;9.80;9.50;;;17.40;99.90;;;;;;5065078;28;20297;-84
2023/06/27 05:25:23;;;;;;;9.73;9.43;;;17.50;99.90;;;;;;5064315;28;20219;-84
2023/06/27 05:27:51;;;;;;;9.68;9.38;;;17.50;99.90;;;;;;5064894;28;20227;-84
2023/06/27 05:30:22;;;;;;;9.60;9.30;;;17.50;99.90;;;;;;5064715;28;20313;-85
2023/06/27 05:32:50;;;;;;;9.30;9.00;;;17.60;99.90;;;;;;5064936;28;20227;-85
2023/06/27 05:35:22;;;;;;;9.13;8.90;;;17.60;99.90;;;;;;5064923;28;20245;-84
2023/06/27 05:37:50;;;;;;;9.32;9.02;;;17.60;99.90;;;;;;5065303;28;20227;-84
2023/06/27 05:40:21;;;;;;;9.30;9.00;;;17.70;99.90;;;;;;5065693;28;20234;-84
2023/06/27 05:42:57;;;;;;;9.50;9.20;;;17.70;99.90;;;;;;5064924;28;20259;-83
2023/06/27 05:45:26;;;;;;;9.40;9.10;;;17.70;99.90;;;;;;5064816;28;20253;-84
2023/06/27 05:47:57;;;;;;;9.30;9.00;;;17.80;99.90;;;;;;5064736;28;20947;-84
2023/06/27 05:53:11;;;;;;;8.82;8.63;;;17.90;99.90;;;;;;5064864;28;20317;-83
2023/06/27 05:55:42;;;;;;;8.85;8.65;;;17.90;99.90;;;;;;5063818;28;20295;-84
2023/06/27 05:58:12;;;;;;;8.85;8.65;;;17.90;99.90;;;;;;5064860;28;20226;-84
2023/06/27 06:03:21;;;;;;;8.93;8.73;;;17.80;99.90;;;;;;5065518;28;20231;-84
2023/06/27 06:08:35;;;;;;;9.55;9.25;;;17.90;99.90;;;;;;5063359;28;20215;-84
2023/06/27 06:11:04;;;;;;;8.88;8.68;;;17.80;99.90;;;;;;5063771;28;20235;-85
2023/06/27 06:13:34;;;;;;;9.25;9.02;;;17.90;99.90;;;;;;5058982;28;20418;-83
2023/06/27 06:16:04;;;;;;;8.90;8.70;;;17.90;99.90;;;;;;5063364;28;20312;-84
2023/06/27 06:18:33;;;;;;;8.75;8.55;;;18.10;99.90;;;;;;5063784;28;20230;-81
2023/06/27 06:21:22;;;;;;;8.70;8.50;;;18.10;99.90;;;;;;5063895;28;20277;-83
2023/06/27 06:23:51;;;;;;;8.80;8.60;;;18.10;99.90;;;;;;5064287;28;20227;-83
2023/06/27 06:26:21;;;;;;;8.40;8.20;;;18.10;99.90;;;;;;5069802;28;20264;-84
2023/06/27 06:28:50;;;;;;;8.77;8.57;;;18.10;99.90;;;;;;5061511;28;20222;-81
2023/06/27 06:31:20;;;;;;;9.20;9.00;;;18.20;99.90;;;;;;5061539;28;20266;-82
2023/06/27 06:33:49;;;;;;;8.98;8.77;;;18.20;99.90;;;;;;5070911;28;20227;-81
2023/06/27 06:36:20;;;;;;;8.77;8.57;;;18.20;99.90;;;;;;5071673;28;20246;-81
2023/06/27 06:38:48;;;;;;;9.10;8.90;;;18.20;99.90;;;;;;5063692;28;20242;-81
2023/06/27 06:41:18;;;;;;;9.20;9.00;;;18.20;99.90;;;;;;5077829;28;20269;-82
2023/06/27 06:43:46;;;;;;;8.98;8.77;;;18.20;99.90;;;;;;5078717;28;20227;-83
2023/06/27 06:46:15;;;;;;;9.10;8.90;;;18.10;99.90;;;;;;5068552;28;20242;-81
2023/06/27 06:48:45;;;;;;;9.40;9.10;;;18.10;99.90;;;;;;5062139;28;20229;-81
2023/06/27 06:51:14;;;;;;;8.90;8.70;;;18.10;99.90;;;;;;5061933;28;20325;-81
2023/06/27 06:54:02;;;;;;;8.88;8.68;;;18.00;99.90;;;;;;5059927;28;20226;-81
2023/06/27 06:56:31;;;;;;;9.00;8.80;;;18.10;99.90;;;;;;5058060;28;20239;-81
2023/06/27 06:59:01;;;;;;;9.02;8.82;;;18.20;99.90;;;;;;5062042;28;20274;-81
2023/06/27 07:01:29;;;;;;;8.90;8.70;;;18.30;99.90;;;;;;5061934;28;20284;-81
2023/06/27 07:03:59;;;;;;;9.00;8.80;;;18.40;99.90;;;;;;5060920;28;20301;-80
2023/06/27 07:06:28;;;;;;;9.40;9.10;;;18.50;99.90;;;;;;5061374;28;20286;-80
2023/06/27 07:09:00;;;;;;;9.15;8.90;;;18.60;99.90;;;;;;5060821;28;20310;-80
2023/06/27 07:11:27;;;;;;;9.07;8.88;;;18.70;99.90;;;;;;5061729;28;20317;-81
2023/06/27 07:13:58;;;;;;;9.23;8.98;;;18.70;99.90;;;;;;5061011;28;20231;-80
2023/06/27 07:16:26;;;;;;;9.30;9.00;;;18.80;99.90;;;;;;5061122;28;20257;-80
2023/06/27 07:18:56;;;;;;;8.88;8.68;;;18.90;99.90;;;;;;5061068;28;20285;-80
2023/06/27 07:21:25;;;;;;;9.05;8.85;;;19.00;99.90;;;;;;5063708;28;20245;-80
2023/06/27 07:23:54;;;;;;;9.00;8.80;;;19.20;99.90;;;;;;5062500;28;20257;-81
2023/06/27 07:29:11;;;;;;;8.70;8.50;;;19.20;99.90;;;;;;5061334;28;20245;-80
2023/06/27 07:31:40;;;;;;;8.57;8.38;;;19.00;99.90;;;;;;5062053;28;20325;-80
2023/06/27 07:34:08;;;;;;;9.02;8.82;;;18.90;99.90;;;;;;5060788;28;20227;-79
2023/06/27 07:36:39;;;;;;;9.18;8.95;;;18.90;99.90;;;;;;5060716;28;20224;-81
2023/06/27 07:39:10;;;;;;;9.70;9.40;;;18.90;99.90;;;;;;5056559;28;20246;-81
2023/06/27 07:41:41;;;;;;;10.07;9.77;;;19.00;99.90;;;;;;5042567;28;20235;-81
2023/06/27 07:46:55;;;;;;;9.70;9.40;;;18.80;99.90;;;;;;5042249;28;20227;-81
2023/06/27 07:49:24;;;;;;;9.50;9.20;;;18.60;99.90;;;;;;5041283;28;20314;-81
2023/06/27 07:51:54;;;;;;;9.60;9.30;;;18.50;99.90;;;;;;5042239;28;20244;-83
2023/06/27 07:54:26;;;;;;;9.80;9.50;;;18.50;99.90;;;;;;5041472;28;20299;-81
2023/06/27 07:56:58;;;;;;;9.73;9.43;;;18.60;99.90;;;;;;5043155;28;20227;-80
2023/06/27 07:59:34;;;;;;;9.43;9.13;;;18.70;99.90;;;;;;5072564;28;20229;-82
2023/06/27 08:02:02;;;;;;;9.52;9.23;;;18.80;99.90;;;;;;5070372;28;20237;-82
2023/06/27 08:04:31;;;;;;;9.55;9.25;;;18.90;99.90;;;;;;5062883;28;20270;-81
2023/06/27 08:06:59;;;;;;;9.38;9.07;;;19.00;99.90;;;;;;5043019;28;20320;-80
2023/06/27 08:09:28;;;;;;;9.60;9.30;;;19.10;99.90;;;;;;5068905;28;20231;-81
2023/06/27 08:12:07;;;;;;;9.32;9.02;;;19.20;99.90;;;;;;5063167;28;20293;-81
2023/06/27 08:14:36;;;;;;;9.30;9.00;;;19.20;99.90;;;;;;5062799;28;20257;-81
2023/06/27 08:17:06;;;;;;;9.32;9.02;;;19.40;99.90;;;;;;5062665;28;20226;-81
2023/06/27 08:19:37;;;;;;;9.00;8.80;;;19.70;99.90;;;;;;5063286;28;20231;-81
2023/06/27 08:22:06;;;;;;;9.50;9.20;;;19.70;99.90;;;;;;5073056;28;20241;-80
2023/06/27 08:24:37;;;;;;;9.90;9.60;;;19.70;99.90;;;;;;5063464;28;20252;-81
2023/06/27 08:29:53;;;;;;;9.90;9.60;;;19.90;99.90;;;;;;5076158;28;20231;-81
2023/06/27 08:32:22;;;;;;;10.10;9.80;;;20.00;99.90;;;;;;5076596;28;20246;-81
2023/06/27 08:34:51;;;;;;;10.18;9.88;;;20.00;99.90;;;;;;5069115;28;20237;-81
2023/06/27 08:37:21;;;;;;;10.02;9.73;;;20.20;99.90;;;;;;5065370;28;20234;-81
2023/06/27 08:39:51;;;;;;;10.13;9.82;;;20.30;99.90;;;;;;5072543;28;20249;-82
2023/06/27 08:42:22;;;;;;;10.00;9.70;;;20.30;99.90;;;;;;5073576;28;20242;-82
2023/06/27 08:44:50;;;;;;;9.95;9.65;;;20.40;99.90;;;;;;5072662;28;20227;-82
2023/06/27 08:47:27;;;;;;;9.60;9.30;;;20.20;99.90;;;;;;5063082;28;20245;-81
2023/06/27 08:50:06;;;;;;;9.80;9.50;;;20.20;99.90;;;;;;5063026;28;20246;-81
2023/06/27 08:52:44;;;;;;;9.65;9.35;;;20.30;99.90;;;;;;5062615;28;20308;-82
2023/06/27 08:55:21;;;;;;;10.00;9.70;;;20.20;99.90;;;;;;5060988;28;20253;-82
2023/06/27 08:58:00;;;;;;;10.07;9.77;;;20.50;99.90;;;;;;5062246;28;20226;-82
2023/06/27 09:00:31;;;;;;;10.60;10.30;;;20.90;99.90;;;;;;5063762;28;20277;-82
2023/06/27 09:02:59;;;;;;;10.52;10.23;;;21.10;99.90;;;;;;5066263;28;20651;-82
2023/06/27 09:05:29;;;;;;;10.57;10.27;;;21.50;99.90;;;;;;5065750;28;20243;-82
2023/06/27 09:07:58;;;;;;;10.60;10.30;;;21.90;99.90;;;;;;5065463;28;20258;-81
2023/06/27 09:10:27;;;;;;;10.80;10.50;;;22.00;99.90;;;;;;5065659;28;20230;-82
2023/06/27 09:13:05;;;;;;;10.40;10.10;;;22.00;99.90;;;;;;5065959;28;20235;-82
2023/06/27 09:15:35;;;;;;;10.40;10.10;;;22.00;99.90;;;;;;5062867;28;20234;-80
2023/06/27 09:18:04;;;;;;;10.25;9.95;;;22.10;99.90;;;;;;5064797;28;20249;-81
2023/06/27 09:20:34;;;;;;;10.13;9.82;;;22.10;99.90;;;;;;5065058;28;20237;-81
2023/06/27 09:23:05;;;;;;;10.30;10.00;;;22.20;99.90;;;;;;5064277;28;20238;-81
2023/06/27 09:25:33;;;;;;;10.27;9.98;;;22.30;99.90;;;;;;5068423;28;20251;-82
2023/06/27 09:28:21;;;;;;;10.40;10.10;;;22.40;99.90;;;;;;5071012;28;20257;-82
2023/06/27 09:30:58;;;;;;;10.15;9.85;;;22.70;99.90;;;;;;5065171;28;20223;-83
2023/06/27 09:33:27;;;;;;;10.85;10.55;;;22.30;99.90;;;;;;5064809;28;20262;-83
2023/06/27 09:35:57;;;;;;;11.07;10.77;;;22.80;99.90;;;;;;5064402;28;20249;-81
2023/06/27 09:38:28;;;;;;;10.90;10.60;;;23.00;99.90;;;;;;5064560;28;20300;-82
2023/06/27 09:41:05;;;;;;;10.63;10.32;;;22.80;99.90;;;;;;5064493;28;20238;-82
2023/06/27 09:43:37;;;;;;;11.10;10.80;;;22.80;99.90;;;;;;5064632;28;20323;-82
2023/06/27 09:46:06;;;;;;;10.75;10.45;;;23.00;99.90;;;;;;5065112;28;20307;-82
2023/06/27 09:48:34;;;;;;;10.85;10.55;;;23.40;99.90;;;;;;5065159;28;20223;-82
2023/06/27 09:51:12;;;;;;;10.80;10.50;;;23.80;99.90;;;;;;5065173;28;20234;-82
2023/06/27 09:53:41;;;;;;;10.60;10.30;;;24.20;99.90;;;;;;5063971;28;20250;-82
2023/06/27 09:56:09;;;;;;;10.80;10.50;;;23.90;99.90;;;;;;5064836;22;20270;-78
2023/06/27 09:58:38;;;;;;;10.45;10.15;;;24.00;99.90;;;;;;5021710;28;20259;-77
2023/06/27 10:01:06;;;;;;;10.88;10.57;;;24.20;99.90;;;;;;5026728;28;20288;-78
2023/06/27 10:03:34;;;;;;;10.77;10.48;;;24.40;99.90;;;;;;5027542;28;20245;-78
2023/06/27 10:06:02;;;;;;;10.50;10.20;;;24.70;99.90;;;;;;5026594;28;20248;-78
2023/06/27 10:08:30;;;;;;;10.50;10.20;;;25.00;99.90;;;;;;5028288;28;20240;-78
2023/06/27 10:10:58;;;;;;;10.20;9.90;;;24.70;99.90;;;;;;5034822;28;20308;-79
2023/06/27 10:13:26;;;;;;;10.15;9.85;;;24.50;99.90;;;;;;5028489;28;20243;-77
2023/06/27 10:15:56;;;;;;;10.45;10.15;;;24.50;99.90;;;;;;5021442;28;20293;-77
2023/06/27 10:18:24;;;;;;;10.20;9.90;;;24.30;99.90;;;;;;5027312;28;20293;-78
2023/06/27 10:20:52;;;;;;;10.27;9.98;;;24.40;99.90;;;;;;5026381;28;20321;-79
2023/06/27 10:23:19;;;;;;;10.00;9.70;;;24.60;99.90;;;;;;5028578;28;20242;-79
2023/06/27 10:25:48;;;;;;;10.55;10.25;;;24.90;99.90;;;;;;5028785;28;20250;-78
2023/06/27 10:28:15;;;;;;;10.52;10.23;;;25.00;99.90;;;;;;5027775;28;20300;-78
2023/06/27 10:30:46;;;;;;;10.80;10.50;;;25.00;99.90;;;;;;5034029;28;20239;-81
2023/06/27 10:33:28;;;;;;;10.57;10.27;;;25.10;99.90;;;;;;5030469;28;20244;-79
2023/06/27 10:36:00;;;;;;;10.50;10.20;;;25.10;99.90;;;;;;5027715;28;20236;-78
2023/06/27 10:38:35;;;;;;;10.60;10.30;;;24.60;99.90;;;;;;5026692;28;20295;-79
2023/06/27 10:41:24;;;;;;;10.48;10.18;;;24.10;99.90;;;;;;5027915;28;20265;-78
2023/06/27 10:43:54;;;;;;;10.52;10.23;;;23.90;99.90;;;;;;5026610;28;20260;-79
2023/06/27 10:46:26;;;;;;;10.80;10.50;;;23.70;99.90;;;;;;5027565;28;20239;-80
2023/06/27 10:49:01;;;;;;;10.70;10.40;;;24.20;99.90;;;;;;5024359;28;20275;-79
2023/06/27 10:51:35;;;;;;;11.02;10.73;;;24.30;99.90;;;;;;5025609;28;20220;-80
2023/06/27 10:54:18;;;;;;;10.50;10.20;;;24.00;99.90;;;;;;5025087;28;20256;-81
2023/06/27 10:56:48;;;;;;;10.57;10.27;;;23.90;99.90;;;;;;5023203;28;20303;-79
2023/06/27 10:59:17;;;;;;;10.90;10.60;;;23.80;99.90;;;;;;5022970;28;20224;-78
2023/06/27 11:01:51;;;;;;;10.60;10.30;;;23.90;99.90;;;;;;5023222;28;20243;-79
2023/06/27 11:04:25;;;;;;;10.48;10.18;;;24.30;99.90;;;;;;5039737;28;20282;-80
2023/06/27 11:07:12;;;;;;;10.88;10.57;;;24.60;99.90;;;;;;5043810;28;20247;-79
2023/06/27 11:09:54;;;;;;;10.40;10.10;;;24.50;99.90;;;;;;5042243;28;20223;-79
2023/06/27 11:12:23;;;;;;;10.30;10.00;;;24.00;99.90;;;;;;5041440;28;20300;-78
2023/06/27 11:14:53;;;;;;;10.70;10.40;;;24.10;99.90;;;;;;5040560;28;20245;-78
2023/06/27 11:17:21;;;;;;;10.60;10.30;;;24.20;99.90;;;;;;5042791;28;20243;-79
2023/06/27 11:19:57;;;;;;;10.50;10.20;;;24.50;99.90;;;;;;5040956;28;20299;-76
2023/06/27 11:22:25;;;;;;;10.00;9.70;;;24.80;99.90;;;;;;5039871;28;20225;-78
2023/06/27 11:24:53;;;;;;;10.10;9.80;;;24.70;99.90;;;;;;5040424;28;20302;-79
2023/06/27 11:27:21;;;;;;;10.25;9.95;;;24.40;99.90;;;;;;5039746;28;20343;-77
2023/06/27 11:29:49;;;;;;;9.90;9.60;;;24.40;99.90;;;;;;5039249;28;20274;-78
2023/06/27 11:32:17;;;;;;;10.10;9.80;;;24.40;99.90;;;;;;5040404;28;20261;-78
2023/06/27 11:34:46;;;;;;;10.60;10.30;;;24.00;99.90;;;;;;5039671;28;20350;-80
2023/06/27 11:37:20;;;;;;;10.35;10.05;;;23.80;99.90;;;;;;5039055;28;20266;-78
2023/06/27 11:40:05;;;;;;;10.40;10.10;;;23.50;99.90;;;;;;5040853;28;20236;-79
2023/06/27 11:42:35;;;;;;;10.52;10.23;;;23.20;99.90;;;;;;5040093;28;20387;-80
2023/06/27 11:45:03;;;;;;;10.50;10.20;;;23.10;99.90;;;;;;5043448;28;21064;-79
2023/06/27 11:47:33;;;;;;;10.65;10.35;;;23.20;99.90;;;;;;5042092;28;20243;-81
2023/06/27 11:50:19;;;;;;;10.70;10.40;;;23.40;99.90;;;;;;5039829;28;20242;-79
2023/06/27 11:52:52;;;;;;;10.70;10.40;;;23.60;99.90;;;;;;5039937;28;20244;-79
2023/06/27 11:55:20;;;;;;;10.50;10.20;;;23.60;99.90;;;;;;5039505;28;20223;-79
2023/06/27 11:57:49;;;;;;;10.60;10.30;;;23.60;99.90;;;;;;5039423;28;20235;-79
2023/06/27 12:00:19;;;;;;;10.32;10.02;;;23.50;99.90;;;;;;5039496;28;20227;-79
2023/06/27 12:02:52;;;;;;;10.48;10.18;;;23.20;99.90;;;;;;5040554;28;20224;-78
2023/06/27 12:05:23;;;;;;;10.35;10.05;;;23.00;99.90;;;;;;5045729;28;21116;-78
2023/06/27 12:08:03;;;;;;;10.07;9.77;;;22.80;99.90;;;;;;5045036;28;20303;-79
2023/06/27 12:10:32;;;;;;;10.43;10.13;;;22.70;99.90;;;;;;5042127;28;20230;-79
2023/06/27 12:13:00;;;;;;;10.30;10.00;;;22.70;99.90;;;;;;5036129;28;20242;-79
2023/06/27 12:15:27;;;;;;;10.00;9.70;;;22.70;99.90;;;;;;5042005;28;20291;-79
2023/06/27 12:18:04;;;;;;;9.75;9.45;;;22.80;99.90;;;;;;5048670;28;20263;-79
2023/06/27 12:20:42;;;;;;;10.20;9.90;;;22.90;99.90;;;;;;5035276;28;20235;-79
2023/06/27 12:23:12;;;;;;;9.98;9.68;;;22.90;99.90;;;;;;5030534;28;20314;-79
2023/06/27 12:25:41;;;;;;;9.93;9.63;;;23.00;99.90;;;;;;5036102;28;20227;-79
2023/06/27 12:28:08;;;;;;;10.15;9.85;;;23.20;99.90;;;;;;5044985;28;20239;-78
2023/06/27 12:30:36;;;;;;;9.68;9.38;;;23.10;99.90;;;;;;5043614;28;20290;-79
2023/06/27 12:33:04;;;;;;;9.68;9.38;;;23.30;99.90;;;;;;5041324;28;20266;-80
2023/06/27 12:35:32;;;;;;;9.65;9.35;;;23.60;99.90;;;;;;5042288;28;20246;-79
2023/06/27 12:38:00;;;;;;;9.88;9.57;;;23.70;99.90;;;;;;5045570;28;20235;-80
2023/06/27 12:40:29;;;;;;;9.75;9.45;;;23.70;99.90;;;;;;5041443;28;20242;-78
2023/06/27 12:42:57;;;;;;;9.48;9.18;;;23.60;99.90;;;;;;5041635;28;20283;-79
2023/06/27 12:45:25;;;;;;;9.80;9.50;;;23.50;99.90;;;;;;5043730;28;20235;-80
2023/06/27 12:47:53;;;;;;;10.00;9.70;;;23.30;99.90;;;;;;5044591;28;20358;-78
2023/06/27 12:50:20;;;;;;;9.80;9.50;;;23.40;99.90;;;;;;5028240;28;20319;-79
2023/06/27 12:52:48;;;;;;;9.80;9.50;;;23.70;99.90;;;;;;5042802;28;20263;-79
2023/06/27 12:55:17;;;;;;;9.70;9.40;;;24.30;99.90;;;;;;5043364;28;20292;-79
2023/06/27 12:57:48;;;;;;;10.00;9.70;;;24.30;99.90;;;;;;5044233;28;20262;-79
2023/06/27 13:00:21;;;;;;;10.20;9.90;;;24.80;99.90;;;;;;5044032;28;20265;-79
2023/06/27 13:02:50;;;;;;;10.00;9.70;;;25.10;99.90;;;;;;5043479;28;20231;-79
2023/06/27 13:05:18;;;;;;;9.98;9.68;;;25.50;99.90;;;;;;5041901;28;20227;-79
2023/06/27 13:07:49;;;;;;;9.95;9.65;;;25.60;99.90;;;;;;5043231;28;20239;-79
2023/06/27 13:10:17;;;;;;;9.70;9.40;;;25.80;99.90;;;;;;5044532;28;20331;-79
2023/06/27 13:12:47;;;;;;;9.55;9.25;;;26.00;99.90;;;;;;5044019;28;20235;-79
2023/06/27 13:15:18;;;;;;;9.07;8.88;;;26.00;99.90;;;;;;5050495;28;20212;-79
2023/06/27 13:17:46;;;;;;;9.23;8.93;;;26.10;99.90;;;;;;5043820;28;20277;-80